createdAt,value
2024-01-19T00:00:41.458Z,1.15
2024-01-19T00:01:42.485Z,1.12
2024-01-19T00:02:41.474Z,1.15
2024-01-19T00:03:41.444Z,1.06
2024-01-19T00:04:42.525Z,0.74
2024-01-19T00:05:41.658Z,0.84
2024-01-19T00:06:42.488Z,0.86
2024-01-19T00:07:41.518Z,0.95
2024-01-19T00:08:41.504Z,0.9
2024-01-19T00:09:42.499Z,0.93
2024-01-19T00:10:41.516Z,0.97
2024-01-19T00:11:42.494Z,0.67
2024-01-19T00:12:41.527Z,0.79
2024-01-19T00:13:42.463Z,0.91
2024-01-19T00:14:41.538Z,0.95
2024-01-19T00:15:43.014Z,0.98
2024-01-19T00:16:42.556Z,0.97
2024-01-19T00:17:41.621Z,1.05
2024-01-19T00:18:42.487Z,1.05
2024-01-19T00:19:41.532Z,1.04
2024-01-19T00:20:41.514Z,0.87
2024-01-19T00:21:42.556Z,0.89
2024-01-19T00:22:41.559Z,0.96
2024-01-19T00:23:42.540Z,1.02
2024-01-19T00:24:41.499Z,0.93
2024-01-19T00:25:47.245Z,0.88
2024-01-19T00:26:41.604Z,0.88
2024-01-19T00:27:41.510Z,0.93
2024-01-19T00:28:42.531Z,0.93
2024-01-19T00:29:41.598Z,0.92
2024-01-19T00:30:42.517Z,0.96
2024-01-19T00:31:42.594Z,0.95
2024-01-19T00:32:41.668Z,0.95
2024-01-19T00:33:42.575Z,0.84
2024-01-19T00:34:41.566Z,0.69
2024-01-19T00:35:42.543Z,0.77
2024-01-19T00:36:42.628Z,0.79
2024-01-19T00:37:41.564Z,0.79
2024-01-19T00:38:42.565Z,0.78
2024-01-19T00:39:41.518Z,0.8
2024-01-19T00:40:42.560Z,0.8
2024-01-19T00:41:42.618Z,0.78
2024-01-19T00:42:42.585Z,0.78
2024-01-19T00:43:41.541Z,0.85
2024-01-19T00:44:41.547Z,0.77
2024-01-19T00:45:45.360Z,0.84
2024-01-19T00:46:41.604Z,0.76
2024-01-19T00:47:42.702Z,0.7
2024-01-19T00:48:41.642Z,0.72
2024-01-19T00:49:41.664Z,0.35
2024-01-19T00:50:45.139Z,0.47
2024-01-19T00:51:41.569Z,0.48
2024-01-19T00:52:42.573Z,0.43
2024-01-19T00:53:41.678Z,0.48
2024-01-19T00:54:44.913Z,0.57
2024-01-19T00:55:44.339Z,0.58
2024-01-19T00:56:41.649Z,0.55
2024-01-19T00:57:42.600Z,0.45
2024-01-19T00:58:41.603Z,0.55
2024-01-19T00:59:42.625Z,0.63
2024-01-19T01:00:44.166Z,0.66
2024-01-19T01:01:41.571Z,0.65
2024-01-19T01:02:42.662Z,0.62
2024-01-19T01:03:41.689Z,0.69
2024-01-19T01:04:42.610Z,0.7
2024-01-19T01:05:59.567Z,0.76
2024-01-19T01:06:41.755Z,0.72
2024-01-19T01:07:42.569Z,0.68
2024-01-19T01:08:41.621Z,0.65
2024-01-19T01:09:42.624Z,0.67
2024-01-19T01:10:43.821Z,0.72
2024-01-19T01:11:42.643Z,0.69
2024-01-19T01:12:41.626Z,0.67
2024-01-19T01:13:41.588Z,0.51
2024-01-19T01:14:42.613Z,0.47
2024-01-19T01:15:43.631Z,0.48
2024-01-19T01:16:42.590Z,0.4
2024-01-19T01:17:41.773Z,0.47
2024-01-19T01:18:41.733Z,0.4
2024-01-19T01:19:42.670Z,0.44
2024-01-19T01:20:43.545Z,0.46
2024-01-19T01:21:42.601Z,0.43
2024-01-19T01:22:41.667Z,0.36
2024-01-19T01:23:48.945Z,0.42
2024-01-19T01:24:41.618Z,0.52
2024-01-19T01:25:43.126Z,0.54
2024-01-19T01:26:42.747Z,0.51
2024-01-19T01:27:41.611Z,0.45
2024-01-19T01:28:42.665Z,0.49
2024-01-19T01:29:41.691Z,0.47
2024-01-19T01:30:42.887Z,0.45
2024-01-19T01:31:42.707Z,0.4
2024-01-19T01:32:41.856Z,0.29
2024-01-19T01:33:42.688Z,0.31
2024-01-19T01:34:41.695Z,0.35
2024-01-19T01:35:42.785Z,0.4
2024-01-19T01:36:42.704Z,0.36
2024-01-19T01:37:41.690Z,0.34
2024-01-19T01:38:42.711Z,0.29
2024-01-19T01:39:41.647Z,0.33
2024-01-19T01:40:42.694Z,0.14
2024-01-19T01:41:41.676Z,0.16
2024-01-19T01:42:41.665Z,0.14
2024-01-19T01:43:42.696Z,0.18
2024-01-19T01:44:41.722Z,0.23
2024-01-19T01:45:42.655Z,0.25
2024-01-19T01:46:42.141Z,0.2
2024-01-19T01:47:41.721Z,0.23
2024-01-19T01:48:42.867Z,0.07
2024-01-19T01:49:41.790Z,0.12
2024-01-19T01:50:42.710Z,-0.06
2024-01-19T01:51:41.671Z,-0.06
2024-01-19T01:52:45.190Z,-0.02
2024-01-19T01:53:41.747Z,-0.06
2024-01-19T01:54:41.685Z,-0.06
2024-01-19T01:55:42.718Z,-0.01
2024-01-19T01:56:41.752Z,-0.11
2024-01-19T01:57:42.755Z,-0.05
2024-01-19T01:58:41.683Z,-0.04
2024-01-19T01:59:41.770Z,-0.11
2024-01-19T02:00:42.738Z,-0.3
2024-01-19T02:01:41.699Z,-0.35
2024-01-19T02:02:42.758Z,-0.28
2024-01-19T02:03:41.753Z,-0.24
2024-01-19T02:04:41.692Z,-0.17
2024-01-19T02:05:42.916Z,-0.17
2024-01-19T02:06:41.906Z,-0.19
2024-01-19T02:07:43.102Z,-0.13
2024-01-19T02:08:41.797Z,-0.1
2024-01-19T02:09:42.980Z,-0.13
2024-01-19T02:10:42.736Z,-0.19
2024-01-19T02:11:41.790Z,-0.18
2024-01-19T02:12:42.723Z,-0.12
2024-01-19T02:13:41.750Z,-0.1
2024-01-19T02:14:42.733Z,-0.1
2024-01-19T02:15:42.726Z,-0.05
2024-01-19T02:16:41.720Z,-0.03
2024-01-19T02:17:42.806Z,0
2024-01-19T02:18:42.026Z,0.03
2024-01-19T02:19:42.760Z,0
2024-01-19T02:20:42.790Z,0.08
2024-01-19T02:21:45.469Z,0.06
2024-01-19T02:22:41.732Z,0.12
2024-01-19T02:23:41.799Z,-0.05
2024-01-19T02:24:42.774Z,-0.02
2024-01-19T02:25:42.734Z,-0.01
2024-01-19T02:26:42.745Z,0.01
2024-01-19T02:27:41.749Z,-0.21
2024-01-19T02:28:41.739Z,-0.06
2024-01-19T02:29:42.831Z,-0.14
2024-01-19T02:30:42.745Z,-0.04
2024-01-19T02:31:42.806Z,-0.06
2024-01-19T02:32:41.810Z,0.05
2024-01-19T02:33:41.785Z,0.08
2024-01-19T02:34:42.768Z,-0.04
2024-01-19T02:35:42.842Z,-0.04
2024-01-19T02:36:42.812Z,-0.06
2024-01-19T02:37:41.800Z,-0.03
2024-01-19T02:38:42.862Z,0.01
2024-01-19T02:39:41.771Z,0.01
2024-01-19T02:40:42.799Z,0.03
2024-01-19T02:41:42.905Z,-0.04
2024-01-19T02:42:41.781Z,-0.02
2024-01-19T02:43:42.823Z,-0.04
2024-01-19T02:44:41.795Z,0
2024-01-19T02:45:42.811Z,-0.12
2024-01-19T02:46:42.815Z,-0.11
2024-01-19T02:47:41.865Z,-0.1
2024-01-19T02:48:42.923Z,-0.08
2024-01-19T02:49:41.842Z,-0.02
2024-01-19T02:50:45.209Z,-0.04
2024-01-19T02:51:41.791Z,-0.06
2024-01-19T02:52:41.843Z,-0.04
2024-01-19T02:53:42.829Z,0
2024-01-19T02:54:41.796Z,-0.02
2024-01-19T02:55:50.801Z,0.05
2024-01-19T02:56:41.857Z,-0.04
2024-01-19T02:57:41.796Z,0.02
2024-01-19T02:58:42.836Z,-0.13
2024-01-19T02:59:41.848Z,-0.07
2024-01-19T03:00:42.847Z,-0.01
2024-01-19T03:01:41.823Z,-0.01
2024-01-19T03:02:41.821Z,-0.1
2024-01-19T03:03:42.832Z,-0.07
2024-01-19T03:04:41.860Z,0.02
2024-01-19T03:05:42.880Z,0
2024-01-19T03:06:41.867Z,-0.1
2024-01-19T03:07:42.855Z,-0.06
2024-01-19T03:08:41.892Z,0.01
2024-01-19T03:09:41.834Z,0.02
2024-01-19T03:10:42.855Z,0.03
2024-01-19T03:11:41.837Z,-0.05
2024-01-19T03:12:42.861Z,0.03
2024-01-19T03:13:41.874Z,0
2024-01-19T03:14:41.888Z,0.02
2024-01-19T03:15:42.893Z,-0.04
2024-01-19T03:16:41.841Z,-0.06
2024-01-19T03:17:42.953Z,-0.01
2024-01-19T03:18:41.874Z,-0.08
2024-01-19T03:19:45.228Z,0.01
2024-01-19T03:20:42.879Z,-0.05
2024-01-19T03:21:41.906Z,-0.07
2024-01-19T03:22:42.847Z,-0.02
2024-01-19T03:23:41.924Z,-0.02
2024-01-19T03:24:42.856Z,-0.08
2024-01-19T03:25:42.904Z,0
2024-01-19T03:26:41.920Z,-0.07
2024-01-19T03:27:42.880Z,-0.08
2024-01-19T03:28:41.910Z,0.02
2024-01-19T03:29:42.904Z,0
2024-01-19T03:30:42.888Z,-0.09
2024-01-19T03:31:41.874Z,-0.14
2024-01-19T03:32:42.944Z,-0.12
2024-01-19T03:33:41.945Z,-0.24
2024-01-19T03:34:42.880Z,-0.16
2024-01-19T03:35:42.923Z,-0.2
2024-01-19T03:36:42.901Z,-0.26
2024-01-19T03:37:41.916Z,-0.16
2024-01-19T03:38:41.905Z,-0.13
2024-01-19T03:39:42.934Z,-0.06
2024-01-19T03:40:42.926Z,-0.02
2024-01-19T03:41:42.935Z,-0.03
2024-01-19T03:42:41.877Z,0.01
2024-01-19T03:43:41.920Z,0.09
2024-01-19T03:44:42.924Z,0.07
2024-01-19T03:45:42.919Z,0.04
2024-01-19T03:46:42.930Z,0.03
2024-01-19T03:47:41.996Z,-0.08
2024-01-19T03:48:45.452Z,-0.05
2024-01-19T03:49:41.927Z,0.02
2024-01-19T03:50:42.968Z,0.02
2024-01-19T03:51:42.957Z,-0.09
2024-01-19T03:52:41.947Z,-0.02
2024-01-19T03:53:42.992Z,0.05
2024-01-19T03:54:41.921Z,0.05
2024-01-19T03:55:42.953Z,0.1
2024-01-19T03:56:43.026Z,0.02
2024-01-19T03:57:41.911Z,0.06
2024-01-19T03:58:42.917Z,0.03
2024-01-19T03:59:41.986Z,0.04
2024-01-19T04:00:43.008Z,0.08
2024-01-19T04:01:42.954Z,-0.02
2024-01-19T04:02:42.112Z,0.04
2024-01-19T04:03:43.058Z,0.06
2024-01-19T04:04:41.976Z,0.1
2024-01-19T04:05:44.375Z,0.06
2024-01-19T04:06:41.991Z,0.05
2024-01-19T04:07:41.936Z,0.09
2024-01-19T04:08:43.006Z,0.05
2024-01-19T04:09:41.968Z,0.1
2024-01-19T04:10:42.978Z,0.13
2024-01-19T04:11:42.022Z,0.13
2024-01-19T04:12:41.940Z,0.13
2024-01-19T04:13:42.963Z,0.15
2024-01-19T04:14:42.014Z,0.21
2024-01-19T04:15:42.945Z,0.24
2024-01-19T04:16:41.945Z,0.21
2024-01-19T04:17:45.372Z,0.24
2024-01-19T04:18:42.033Z,0.27
2024-01-19T04:19:42.040Z,0.26
2024-01-19T04:20:43.052Z,0.3
2024-01-19T04:21:41.967Z,0.27
2024-01-19T04:22:42.981Z,0.26
2024-01-19T04:23:42.045Z,0.29
2024-01-19T04:24:41.962Z,0.33
2024-01-19T04:25:42.987Z,0.32
2024-01-19T04:26:42.034Z,0.24
2024-01-19T04:27:43.007Z,0.21
2024-01-19T04:28:42.020Z,0.24
2024-01-19T04:29:42.046Z,0.23
2024-01-19T04:30:43.007Z,0.27
2024-01-19T04:31:42.012Z,0.31
2024-01-19T04:32:43.096Z,0.33
2024-01-19T04:33:42.083Z,0.3
2024-01-19T04:34:43.051Z,0.4
2024-01-19T04:35:43.101Z,0.43
2024-01-19T04:36:41.991Z,0.37
2024-01-19T04:37:42.984Z,0.39
2024-01-19T04:38:42.000Z,0.44
2024-01-19T04:39:42.985Z,0.47
2024-01-19T04:40:43.022Z,0.54
2024-01-19T04:41:42.080Z,0.5
2024-01-19T04:42:43.036Z,0.51
2024-01-19T04:43:42.050Z,0.56
2024-01-19T04:44:43.016Z,0.57
2024-01-19T04:45:43.029Z,0.53
2024-01-19T04:46:45.420Z,0.47
2024-01-19T04:47:42.113Z,0.52
2024-01-19T04:48:42.249Z,0.56
2024-01-19T04:49:43.001Z,0.61
2024-01-19T04:50:43.064Z,0.6
2024-01-19T04:51:43.070Z,0.53
2024-01-19T04:52:42.024Z,0.53
2024-01-19T04:53:42.118Z,0.56
2024-01-19T04:54:43.093Z,0.58
2024-01-19T04:55:43.043Z,0.58
2024-01-19T04:56:45.202Z,0.49
2024-01-19T04:57:42.028Z,0.52
2024-01-19T04:58:42.084Z,0.59
2024-01-19T04:59:43.082Z,0.6
2024-01-19T05:00:43.051Z,0.56
2024-01-19T05:01:43.024Z,0.53
2024-01-19T05:02:42.104Z,0.55
2024-01-19T05:03:43.075Z,0.56
2024-01-19T05:04:42.111Z,0.58
2024-01-19T05:05:43.119Z,0.54
2024-01-19T05:06:43.134Z,0.51
2024-01-19T05:07:42.056Z,0.56
2024-01-19T05:08:43.139Z,0.56
2024-01-19T05:09:42.060Z,0.61
2024-01-19T05:10:53.034Z,0.62
2024-01-19T05:11:43.148Z,0.63
2024-01-19T05:12:42.065Z,0.61
2024-01-19T05:13:43.110Z,0.61
2024-01-19T05:14:42.078Z,0.62
2024-01-19T05:15:46.381Z,0.71
2024-01-19T05:16:42.107Z,0.69
2024-01-19T05:17:42.199Z,0.65
2024-01-19T05:18:43.150Z,0.67
2024-01-19T05:19:42.140Z,0.71
2024-01-19T05:20:43.102Z,0.74
2024-01-19T05:21:42.076Z,0.71
2024-01-19T05:22:42.120Z,0.68
2024-01-19T05:23:43.196Z,0.68
2024-01-19T05:24:42.085Z,0.77
2024-01-19T05:25:43.111Z,0.8
2024-01-19T05:26:42.162Z,0.81
2024-01-19T05:27:42.094Z,0.82
2024-01-19T05:28:43.141Z,0.8
2024-01-19T05:29:42.251Z,0.83
2024-01-19T05:30:43.090Z,0.84
2024-01-19T05:31:42.159Z,0.82
2024-01-19T05:32:43.249Z,0.83
2024-01-19T05:33:42.275Z,0.87
2024-01-19T05:34:42.124Z,0.92
2024-01-19T05:35:43.176Z,0.97
2024-01-19T05:36:42.118Z,0.99
2024-01-19T05:37:43.097Z,1.03
2024-01-19T05:38:42.154Z,0.95
2024-01-19T05:39:42.114Z,0.96
2024-01-19T05:40:43.146Z,0.99
2024-01-19T05:41:42.193Z,0.96
2024-01-19T05:42:43.107Z,1.02
2024-01-19T05:43:42.164Z,1.03
2024-01-19T05:44:46.443Z,1.05
2024-01-19T05:45:43.124Z,1.08
2024-01-19T05:46:42.168Z,1.03
2024-01-19T05:47:43.222Z,1.06
2024-01-19T05:48:42.214Z,1.1
2024-01-19T05:49:43.262Z,1.06
2024-01-19T05:50:43.258Z,1.07
2024-01-19T05:51:42.144Z,1.08
2024-01-19T05:52:43.220Z,1.11
2024-01-19T05:53:42.230Z,1.08
2024-01-19T05:54:43.177Z,1.06
2024-01-19T05:55:43.153Z,1.12
2024-01-19T05:56:42.214Z,1.14
2024-01-19T05:57:43.145Z,1.11
2024-01-19T05:58:42.152Z,1.14
2024-01-19T05:59:43.220Z,1.17
2024-01-19T06:00:43.245Z,1.17
2024-01-19T06:01:44.579Z,1.22
2024-01-19T06:02:42.221Z,1.26
2024-01-19T06:03:42.187Z,1.28
2024-01-19T06:04:43.190Z,1.31
2024-01-19T06:05:43.268Z,1.36
2024-01-19T06:06:43.266Z,1.36
2024-01-19T06:07:42.187Z,1.36
2024-01-19T06:08:42.262Z,1.4
2024-01-19T06:09:45.494Z,1.41
2024-01-19T06:10:44.669Z,1.43
2024-01-19T06:11:43.237Z,1.42
2024-01-19T06:12:42.187Z,1.43
2024-01-19T06:14:00.517Z,1.43
2024-01-19T06:14:42.220Z,1.49
2024-01-19T06:15:43.170Z,1.51
2024-01-19T06:16:43.225Z,1.5
2024-01-19T06:17:42.280Z,1.53
2024-01-19T06:18:43.332Z,1.57
2024-01-19T06:19:42.301Z,1.52
2024-01-19T06:20:43.334Z,1.56
2024-01-19T06:21:43.220Z,1.55
2024-01-19T06:22:42.247Z,1.58
2024-01-19T06:23:43.256Z,1.57
2024-01-19T06:24:42.218Z,1.58
2024-01-19T06:25:43.409Z,1.59
2024-01-19T06:26:43.254Z,1.55
2024-01-19T06:27:42.202Z,1.58
2024-01-19T06:28:43.256Z,1.6
2024-01-19T06:29:42.228Z,1.6
2024-01-19T06:30:44.662Z,1.6
2024-01-19T06:31:42.270Z,1.57
2024-01-19T06:32:42.305Z,1.6
2024-01-19T06:33:43.318Z,1.59
2024-01-19T06:34:42.219Z,1.56
2024-01-19T06:35:43.400Z,1.54
2024-01-19T06:36:42.226Z,1.5
2024-01-19T06:37:42.273Z,1.5
2024-01-19T06:38:43.342Z,1.54
2024-01-19T06:39:42.234Z,1.61
2024-01-19T06:40:43.235Z,1.57
2024-01-19T06:41:42.306Z,1.54
2024-01-19T06:42:45.990Z,1.56
2024-01-19T06:43:42.275Z,1.49
2024-01-19T06:44:42.310Z,1.54
2024-01-19T06:45:43.294Z,1.57
2024-01-19T06:46:42.293Z,1.52
2024-01-19T06:47:43.397Z,1.58
2024-01-19T06:48:42.358Z,1.59
2024-01-19T06:49:42.280Z,1.61
2024-01-19T06:50:43.281Z,1.59
2024-01-19T06:51:42.269Z,1.59
2024-01-19T06:52:43.295Z,1.58
2024-01-19T06:53:42.309Z,1.57
2024-01-19T06:54:42.255Z,1.57
2024-01-19T06:55:43.301Z,1.64
2024-01-19T06:56:42.362Z,1.56
2024-01-19T06:57:43.327Z,1.55
2024-01-19T06:58:42.325Z,1.55
2024-01-19T06:59:44.969Z,1.54
2024-01-19T07:00:46.182Z,1.54
2024-01-19T07:01:42.273Z,1.52
2024-01-19T07:02:43.345Z,1.56
2024-01-19T07:03:42.344Z,1.53
2024-01-19T07:04:43.349Z,1.6
2024-01-19T07:05:43.369Z,1.57
2024-01-19T07:06:42.431Z,1.54
2024-01-19T07:07:43.313Z,1.51
2024-01-19T07:08:42.346Z,1.57
2024-01-19T07:09:43.311Z,1.6
2024-01-19T07:10:43.305Z,1.57
2024-01-19T07:11:45.719Z,1.51
2024-01-19T07:12:42.286Z,1.55
2024-01-19T07:13:42.292Z,1.6
2024-01-19T07:14:43.397Z,1.62
2024-01-19T07:15:43.291Z,1.55
2024-01-19T07:16:43.353Z,1.58
2024-01-19T07:17:42.384Z,1.6
2024-01-19T07:18:42.403Z,1.55
2024-01-19T07:19:43.594Z,1.58
2024-01-19T07:20:43.362Z,1.54
2024-01-19T07:21:43.317Z,1.51
2024-01-19T07:22:42.358Z,1.56
2024-01-19T07:23:42.341Z,1.6
2024-01-19T07:24:43.360Z,1.65
2024-01-19T07:25:43.322Z,1.62
2024-01-19T07:26:43.379Z,1.66
2024-01-19T07:27:42.317Z,1.71
2024-01-19T07:28:44.664Z,1.75
2024-01-19T07:29:44.824Z,1.72
2024-01-19T07:30:43.360Z,1.79
2024-01-19T07:31:43.412Z,1.78
2024-01-19T07:32:52.255Z,1.79
2024-01-19T07:33:43.467Z,1.77
2024-01-19T07:34:42.407Z,1.81
2024-01-19T07:35:43.542Z,1.76
2024-01-19T07:36:43.491Z,1.79
2024-01-19T07:37:42.359Z,1.87
2024-01-19T07:38:43.446Z,1.86
2024-01-19T07:39:42.371Z,1.88
2024-01-19T07:40:49.959Z,1.91
2024-01-19T07:41:42.527Z,1.87
2024-01-19T07:42:53.241Z,1.83
2024-01-19T07:43:43.396Z,1.81
2024-01-19T07:44:42.454Z,1.87
2024-01-19T07:46:06.563Z,1.88
2024-01-19T07:46:42.409Z,1.86
2024-01-19T07:47:53.269Z,1.93
2024-01-19T07:48:43.778Z,1.95
2024-01-19T07:49:42.414Z,1.98
2024-01-19T07:50:43.409Z,1.99
2024-01-19T07:51:43.369Z,1.97
2024-01-19T07:52:42.387Z,1.94
2024-01-19T07:53:43.396Z,1.9
2024-01-19T07:54:42.372Z,1.9
2024-01-19T07:55:43.380Z,1.91
2024-01-19T07:56:42.431Z,1.87
2024-01-19T07:57:43.433Z,1.93
2024-01-19T07:58:42.437Z,1.93
2024-01-19T07:59:42.498Z,1.94
2024-01-19T08:00:43.548Z,1.91
2024-01-19T08:01:42.399Z,1.93
2024-01-19T08:02:43.618Z,1.94
2024-01-19T08:03:42.452Z,2
2024-01-19T08:04:42.402Z,2.09
2024-01-19T08:05:43.484Z,2.14
2024-01-19T08:06:42.467Z,2.08
2024-01-19T08:07:43.453Z,2.07
2024-01-19T08:08:42.453Z,2.11
2024-01-19T08:09:45.829Z,2.15
2024-01-19T08:10:43.460Z,2.2
2024-01-19T08:11:42.481Z,2.2
2024-01-19T08:12:43.453Z,2.17
2024-01-19T08:13:42.443Z,2.16
2024-01-19T08:14:43.518Z,2.12
2024-01-19T08:15:43.487Z,2.13
2024-01-19T08:16:42.434Z,2.13
2024-01-19T08:18:43.646Z,2.05
2024-01-19T08:19:43.547Z,2.02
2024-01-19T08:20:43.538Z,2.04
2024-01-19T08:21:42.457Z,2.05
2024-01-19T08:22:43.539Z,2.04
2024-01-19T08:23:42.457Z,2
2024-01-19T08:24:43.572Z,2.01
2024-01-19T08:25:43.523Z,1.98
2024-01-19T08:26:43.507Z,1.96
2024-01-19T08:27:42.457Z,1.91
2024-01-19T08:28:42.463Z,1.94
2024-01-19T08:29:43.489Z,1.96
2024-01-19T08:30:43.603Z,1.96
2024-01-19T08:31:43.607Z,1.98
2024-01-19T08:32:42.532Z,1.95
2024-01-19T08:33:42.635Z,1.88
2024-01-19T08:34:43.580Z,1.89
2024-01-19T08:35:43.498Z,1.95
2024-01-19T08:36:43.568Z,1.96
2024-01-19T08:37:42.561Z,1.98
2024-01-19T08:38:45.932Z,1.98
2024-01-19T08:39:42.484Z,2.03
2024-01-19T08:40:43.517Z,2.06
2024-01-19T08:41:43.694Z,2.03
2024-01-19T08:42:42.492Z,2.04
2024-01-19T08:43:43.556Z,2.04
2024-01-19T08:44:42.532Z,2.08
2024-01-19T08:45:43.566Z,1.99
2024-01-19T08:46:43.511Z,2.05
2024-01-19T08:47:42.573Z,2.01
2024-01-19T08:48:43.668Z,2.04
2024-01-19T08:49:42.567Z,2.08
2024-01-19T08:50:43.586Z,2.1
2024-01-19T08:51:44.879Z,2.13
2024-01-19T08:52:53.422Z,2.19
2024-01-19T08:53:43.554Z,2.21
2024-01-19T08:54:42.504Z,2.23
2024-01-19T08:55:43.614Z,2.24
2024-01-19T08:56:49.295Z,2.19
2024-01-19T08:57:43.565Z,2.18
2024-01-19T08:58:43.513Z,2.15
2024-01-19T08:59:42.629Z,2.12
2024-01-19T09:00:43.579Z,2.14
2024-01-19T09:01:42.518Z,2.19
2024-01-19T09:02:49.740Z,2.17
2024-01-19T09:03:43.567Z,2.13
2024-01-19T09:04:42.586Z,2.09
2024-01-19T09:05:43.647Z,2.14
2024-01-19T09:06:45.388Z,2.15
2024-01-19T09:07:45.963Z,2.18
2024-01-19T09:08:42.655Z,2.22
2024-01-19T09:09:42.526Z,2.22
2024-01-19T09:10:43.580Z,2.23
2024-01-19T09:11:42.639Z,2.26
2024-01-19T09:12:43.539Z,2.35
2024-01-19T09:13:42.559Z,2.28
2024-01-19T09:14:42.571Z,2.32
2024-01-19T09:15:43.533Z,2.27
2024-01-19T09:16:42.579Z,2.32
2024-01-19T09:17:43.624Z,2.32
2024-01-19T09:18:42.849Z,2.38
2024-01-19T09:19:42.566Z,2.41
2024-01-19T09:20:43.649Z,2.42
2024-01-19T09:21:42.552Z,2.38
2024-01-19T09:22:43.583Z,2.3
2024-01-19T09:23:42.575Z,2.27
2024-01-19T09:24:46.402Z,2.31
2024-01-19T09:25:43.621Z,2.35
2024-01-19T09:26:42.662Z,2.28
2024-01-19T09:27:43.555Z,2.31
2024-01-19T09:28:42.602Z,2.38
2024-01-19T09:29:43.636Z,2.41
2024-01-19T09:30:43.644Z,2.38
2024-01-19T09:31:42.612Z,2.36
2024-01-19T09:32:43.713Z,2.31
2024-01-19T09:33:42.679Z,2.3
2024-01-19T09:35:44.768Z,2.34
2024-01-19T09:36:46.054Z,2.36
2024-01-19T09:37:42.575Z,2.42
2024-01-19T09:38:42.656Z,2.47
2024-01-19T09:39:43.596Z,2.4
2024-01-19T09:40:43.629Z,2.43
2024-01-19T09:41:43.705Z,2.47
2024-01-19T09:42:42.608Z,2.45
2024-01-19T09:43:42.595Z,2.52
2024-01-19T09:44:43.661Z,2.56
2024-01-19T09:45:43.630Z,2.47
2024-01-19T09:48:43.737Z,2.49
2024-01-19T09:49:43.738Z,2.45
2024-01-19T09:50:43.718Z,2.47
2024-01-19T09:51:43.803Z,2.48
2024-01-19T09:52:42.678Z,2.48
2024-01-19T09:53:48.661Z,2.45
2024-01-19T09:54:42.652Z,2.4
2024-01-19T09:55:43.770Z,2.4
2024-01-19T09:56:43.731Z,2.38
2024-01-19T09:57:42.626Z,2.38
2024-01-19T09:58:43.644Z,2.41
2024-01-19T09:59:42.702Z,2.39
2024-01-19T10:00:43.674Z,2.39
2024-01-19T10:01:43.621Z,2.38
2024-01-19T10:02:42.699Z,2.42
2024-01-19T10:03:43.719Z,2.41
2024-01-19T10:04:42.724Z,2.42
2024-01-19T10:05:46.350Z,2.47
2024-01-19T10:06:42.731Z,2.42
2024-01-19T10:07:42.657Z,2.4
2024-01-19T10:08:43.695Z,2.44
2024-01-19T10:09:42.657Z,2.49
2024-01-19T10:10:43.652Z,2.51
2024-01-19T10:11:42.780Z,2.5
2024-01-19T10:12:42.657Z,2.47
2024-01-19T10:13:43.688Z,2.46
2024-01-19T10:14:42.725Z,2.48
2024-01-19T10:15:43.661Z,2.44
2024-01-19T10:16:42.664Z,2.41
2024-01-19T10:17:42.808Z,2.31
2024-01-19T10:18:43.892Z,2.34
2024-01-19T10:19:42.712Z,2.35
2024-01-19T10:20:43.704Z,2.4
2024-01-19T10:21:42.665Z,2.4
2024-01-19T10:22:55.721Z,2.41
2024-01-19T10:23:42.736Z,2.43
2024-01-19T10:24:42.678Z,2.49
2024-01-19T10:25:43.746Z,2.51
2024-01-19T10:26:42.759Z,2.46
2024-01-19T10:27:44.786Z,2.46
2024-01-19T10:28:42.739Z,2.51
2024-01-19T10:29:42.716Z,2.35
2024-01-19T10:30:43.734Z,2.37
2024-01-19T10:31:42.710Z,2.37
2024-01-19T10:32:43.799Z,2.42
2024-01-19T10:33:42.917Z,2.45
2024-01-19T10:35:00.050Z,2.47
2024-01-19T10:35:43.714Z,2.45
2024-01-19T10:36:42.703Z,2.45
2024-01-19T10:37:43.791Z,2.48
2024-01-19T10:38:42.717Z,2.38
2024-01-19T10:39:43.712Z,2.41
2024-01-19T10:40:43.707Z,2.39
2024-01-19T10:41:42.812Z,2.37
2024-01-19T10:42:43.821Z,2.4
2024-01-19T10:43:42.718Z,2.43
2024-01-19T10:44:43.823Z,2.46
2024-01-19T10:45:43.741Z,2.43
2024-01-19T10:46:42.788Z,2.44
2024-01-19T10:47:43.844Z,2.43
2024-01-19T10:48:42.817Z,2.39
2024-01-19T10:49:43.775Z,2.31
2024-01-19T10:50:43.808Z,2.28
2024-01-19T10:51:43.838Z,2.26
2024-01-19T10:52:42.729Z,2.27
2024-01-19T10:53:42.798Z,2.33
2024-01-19T10:54:43.760Z,2.34
2024-01-19T10:55:43.792Z,2.25
2024-01-19T10:56:43.968Z,2.23
2024-01-19T10:57:42.742Z,2.25
2024-01-19T10:58:42.797Z,2.27
2024-01-19T10:59:43.774Z,2.31
2024-01-19T11:00:43.841Z,2.29
2024-01-19T11:01:43.929Z,2.23
2024-01-19T11:02:42.789Z,2.24
2024-01-19T11:03:46.695Z,2.24
2024-01-19T11:04:42.761Z,2.23
2024-01-19T11:05:43.952Z,2.25
2024-01-19T11:06:43.966Z,2.23
2024-01-19T11:07:42.814Z,2.24
2024-01-19T11:08:43.793Z,2.28
2024-01-19T11:09:42.766Z,2.3
2024-01-19T11:10:46.144Z,2.29
2024-01-19T11:11:43.891Z,2.25
2024-01-19T11:12:42.785Z,2.26
2024-01-19T11:13:43.851Z,2.29
2024-01-19T11:14:42.823Z,2.26
2024-01-19T11:15:43.821Z,2.26
2024-01-19T11:16:43.783Z,2.24
2024-01-19T11:17:42.894Z,2.31
2024-01-19T11:18:43.993Z,2.34
2024-01-19T11:19:42.803Z,2.36
2024-01-19T11:20:43.847Z,2.3
2024-01-19T11:21:42.808Z,2.16
2024-01-19T11:22:44.843Z,2.2
2024-01-19T11:23:44.072Z,2.22
2024-01-19T11:24:42.885Z,2.22
2024-01-19T11:25:43.947Z,2.22
2024-01-19T11:26:42.947Z,2.17
2024-01-19T11:27:42.916Z,2.16
2024-01-19T11:28:43.839Z,2.22
2024-01-19T11:29:42.917Z,2.26
2024-01-19T11:30:43.931Z,2.23
2024-01-19T11:31:42.866Z,2.2
2024-01-19T11:32:46.438Z,2.17
2024-01-19T11:33:43.040Z,2.24
2024-01-19T11:34:43.069Z,2.26
2024-01-19T11:35:44.019Z,2.23
2024-01-19T11:36:42.876Z,2.23
2024-01-19T11:37:48.540Z,2.22
2024-01-19T11:38:42.861Z,2.21
2024-01-19T11:39:42.846Z,2.17
2024-01-19T11:40:43.856Z,2.15
2024-01-19T11:41:42.911Z,2.09
2024-01-19T11:42:50.636Z,2.17
2024-01-19T11:43:42.838Z,2.13
2024-01-19T11:44:42.921Z,2.14
2024-01-19T11:45:43.900Z,2.08
2024-01-19T11:46:42.841Z,1.98
2024-01-19T11:47:44.264Z,2.01
2024-01-19T11:48:43.003Z,2.01
2024-01-19T11:49:50.745Z,2.05
2024-01-19T11:50:43.870Z,2.07
2024-01-19T11:51:42.858Z,2.02
2024-01-19T11:52:43.833Z,1.94
2024-01-19T11:53:42.885Z,1.95
2024-01-19T11:54:43.892Z,1.95
2024-01-19T11:55:43.857Z,1.82
2024-01-19T11:56:42.872Z,1.88
2024-01-19T11:57:43.910Z,1.9
2024-01-19T11:58:42.908Z,1.94
2024-01-19T11:59:43.929Z,1.97
2024-01-19T12:00:43.870Z,1.93
2024-01-19T12:01:46.321Z,1.88
2024-01-19T12:02:42.934Z,1.94
2024-01-19T12:03:42.884Z,1.96
2024-01-19T12:04:43.937Z,2.01
2024-01-19T12:05:44.077Z,1.98
2024-01-19T12:06:43.999Z,1.97
2024-01-19T12:07:42.883Z,2.03
2024-01-19T12:08:43.485Z,1.96
2024-01-19T12:09:43.949Z,1.99
2024-01-19T12:10:43.927Z,1.91
2024-01-19T12:11:43.918Z,1.86
2024-01-19T12:12:42.896Z,1.71
2024-01-19T12:13:48.606Z,1.78
2024-01-19T12:14:43.916Z,1.81
2024-01-19T12:15:43.917Z,1.75
2024-01-19T12:16:43.912Z,1.78
2024-01-19T12:17:42.962Z,1.79
2024-01-19T12:18:43.936Z,1.86
2024-01-19T12:19:42.933Z,1.93
2024-01-19T12:20:43.943Z,1.9
2024-01-19T12:21:44.011Z,1.88
2024-01-19T12:22:42.908Z,1.93
2024-01-19T12:23:43.902Z,1.93
2024-01-19T12:24:42.952Z,1.93
2024-01-19T12:25:43.948Z,1.86
2024-01-19T12:26:43.944Z,1.75
2024-01-19T12:27:42.971Z,1.85
2024-01-19T12:28:43.949Z,1.93
2024-01-19T12:29:42.916Z,1.93
2024-01-19T12:30:50.318Z,1.93
2024-01-19T12:31:43.039Z,1.91
2024-01-19T12:32:43.052Z,1.94
2024-01-19T12:33:43.991Z,1.75
2024-01-19T12:34:43.004Z,1.82
2024-01-19T12:35:43.985Z,1.82
2024-01-19T12:36:43.001Z,1.79
2024-01-19T12:37:43.065Z,1.76
2024-01-19T12:38:43.964Z,1.82
2024-01-19T12:39:42.988Z,1.78
2024-01-19T12:40:44.003Z,1.75
2024-01-19T12:41:42.951Z,1.79
2024-01-19T12:42:43.003Z,1.84
2024-01-19T12:43:44.022Z,1.82
2024-01-19T12:44:42.958Z,1.88
2024-01-19T12:45:43.954Z,1.87
2024-01-19T12:46:43.024Z,1.91
2024-01-19T12:47:46.859Z,1.95
2024-01-19T12:48:43.051Z,1.97
2024-01-19T12:49:49.036Z,1.95
2024-01-19T12:50:44.104Z,1.95
2024-01-19T12:51:43.932Z,1.99
2024-01-19T12:52:43.990Z,2.02
2024-01-19T12:53:42.962Z,2.03
2024-01-19T12:54:43.023Z,2.02
2024-01-19T12:55:44.015Z,2
2024-01-19T12:56:42.987Z,2.02
2024-01-19T12:57:43.968Z,2.04
2024-01-19T12:58:43.036Z,2.04
2024-01-19T12:59:46.751Z,2.01
2024-01-19T13:00:44.074Z,1.9
2024-01-19T13:01:43.031Z,1.92
2024-01-19T13:02:44.040Z,2
2024-01-19T13:03:43.019Z,2.05
2024-01-19T13:04:44.099Z,2.05
2024-01-19T13:05:44.058Z,2.06
2024-01-19T13:06:43.007Z,2.08
2024-01-19T13:08:43.996Z,2.04
2024-01-19T13:09:44.095Z,2.11
2024-01-19T13:10:44.071Z,2.09
2024-01-19T13:11:43.008Z,2.05
2024-01-19T13:12:43.999Z,2.06
2024-01-19T13:13:43.032Z,2.13
2024-01-19T13:14:44.096Z,2.1
2024-01-19T13:15:44.044Z,1.99
2024-01-19T13:16:58.041Z,2.01
2024-01-19T13:17:43.047Z,1.99
2024-01-19T13:18:43.041Z,1.9
2024-01-19T13:19:44.102Z,1.81
2024-01-19T13:20:44.074Z,1.81
2024-01-19T13:21:44.033Z,1.83
2024-01-19T13:22:43.098Z,1.92
2024-01-19T13:23:43.037Z,1.93